createdAt,value
2019-06-07T00:00:38.862Z,10.23
2019-06-07T00:03:01.147Z,7.03
2019-06-07T00:05:31.525Z,7.75
2019-06-07T00:08:07.594Z,8.80
2019-06-07T00:10:36.893Z,7.53
2019-06-07T00:13:06.907Z,7.47
2019-06-07T00:15:37.397Z,5.33
2019-06-07T00:18:11.198Z,6.67
2019-06-07T00:20:39.816Z,7.03
2019-06-07T00:23:12.203Z,7.03
2019-06-07T00:25:42.153Z,4.97
2019-06-07T00:28:13.283Z,12.50
2019-06-07T00:30:51.786Z,11.63
2019-06-07T00:33:20.553Z,6.33
2019-06-07T00:35:48.251Z,7.00
2019-06-07T00:38:20.415Z,8.70
2019-06-07T00:40:49.919Z,7.33
2019-06-07T00:43:26.199Z,9.77
2019-06-07T00:45:52.300Z,11.27
2019-06-07T00:48:31.445Z,8.70
2019-06-07T00:50:54.601Z,6.20
2019-06-07T00:53:31.637Z,5.60
2019-06-07T00:55:57.152Z,10.67
2019-06-07T00:58:29.400Z,9.60
2019-06-07T01:00:59.492Z,9.43
2019-06-07T01:03:29.219Z,14.43
2019-06-07T01:05:59.468Z,7.77
2019-06-07T01:08:30.208Z,16.67
2019-06-07T01:11:00.645Z,11.17
2019-06-07T01:13:31.001Z,11.83
2019-06-07T01:16:01.441Z,9.17
2019-06-07T01:18:39.065Z,10.07
2019-06-07T01:21:03.008Z,10.97
2019-06-07T01:27:02.004Z,10.53
2019-06-07T01:29:31.635Z,6.10
2019-06-07T01:32:01.861Z,8.93
2019-06-07T01:34:32.218Z,7.20
2019-06-07T01:37:02.527Z,7.67
2019-06-07T01:39:33.006Z,11.40
2019-06-07T01:42:03.336Z,8.23
2019-06-07T01:44:33.754Z,10.33
2019-06-07T01:47:04.045Z,9.23
2019-06-07T01:49:34.398Z,7.20
2019-06-07T01:52:04.733Z,7.27
2019-06-07T01:54:56.720Z,12.70
2019-06-07T01:57:07.065Z,6.77
2019-06-07T01:59:37.402Z,12.50
2019-06-07T02:02:07.760Z,4.63
2019-06-07T02:04:38.089Z,9.03
2019-06-07T02:07:08.450Z,6.70
2019-06-07T02:09:38.790Z,11.17
2019-06-07T02:12:25.170Z,7.67
2019-06-07T02:14:41.134Z,10.63
2019-06-07T02:17:11.508Z,6.80
2019-06-07T02:19:41.850Z,12.17
2019-06-07T02:22:12.185Z,5.67
2019-06-07T02:24:43.731Z,8.40
2019-06-07T02:27:14.287Z,7.83
2019-06-07T02:29:43.975Z,11.07
2019-06-07T02:32:14.225Z,5.03
2019-06-07T02:34:44.567Z,8.50
2019-06-07T02:37:14.246Z,6.53
2019-06-07T02:39:44.557Z,8.37
2019-06-07T02:42:14.311Z,7.97
2019-06-07T02:44:44.558Z,7.83
2019-06-07T02:47:14.258Z,5.90
2019-06-07T02:49:44.770Z,15.00
2019-06-07T02:52:15.154Z,6.80
2019-06-07T02:54:45.488Z,7.40
2019-06-07T02:57:15.843Z,8.50
2019-06-07T03:00:06.719Z,9.10
2019-06-07T03:02:18.307Z,8.43
2019-06-07T03:04:49.083Z,11.33
2019-06-07T03:07:20.243Z,7.00
2019-06-07T03:09:51.374Z,7.60
2019-06-07T03:12:22.835Z,7.27
2019-06-07T03:14:53.150Z,5.40
2019-06-07T03:17:44.833Z,7.83
2019-06-07T03:20:15.662Z,6.80
2019-06-07T03:22:46.108Z,4.17
2019-06-07T03:25:16.442Z,6.83
2019-06-07T03:27:50.246Z,8.10
2019-06-07T03:30:38.663Z,6.50
2019-06-07T03:32:52.390Z,7.40
2019-06-07T03:35:22.779Z,6.43
2019-06-07T03:37:53.119Z,7.83
2019-06-07T03:40:22.817Z,8.13
2019-06-07T03:42:53.081Z,8.20
2019-06-07T03:45:22.781Z,5.03
2019-06-07T03:47:53.046Z,8.13
2019-06-07T03:50:23.359Z,5.97
2019-06-07T03:52:53.047Z,7.30
2019-06-07T03:55:22.625Z,4.67
2019-06-07T04:00:24.874Z,11.13
2019-06-07T04:02:54.576Z,8.67
2019-06-07T04:05:24.832Z,8.03
2019-06-07T04:07:54.491Z,8.07
2019-06-07T04:10:44.686Z,8.40
2019-06-07T04:12:56.051Z,9.93
2019-06-07T04:15:26.285Z,11.23
2019-06-07T04:18:01.848Z,9.40
2019-06-07T04:20:29.358Z,5.23
2019-06-07T04:23:00.611Z,10.03
2019-06-07T04:25:33.919Z,4.20
2019-06-07T04:28:02.263Z,5.87
2019-06-07T04:30:39.484Z,9.20
2019-06-07T04:33:11.157Z,11.17
2019-06-07T04:35:42.917Z,8.27
2019-06-07T04:38:14.707Z,6.20
2019-06-07T04:40:44.541Z,9.57
2019-06-07T04:43:14.808Z,8.13
2019-06-07T04:45:50.778Z,6.27
2019-06-07T04:48:16.350Z,6.97
2019-06-07T04:50:47.699Z,11.37
2019-06-07T04:53:18.057Z,6.50
2019-06-07T04:55:48.378Z,11.57
2019-06-07T04:58:18.702Z,13.60
2019-06-07T05:00:55.575Z,14.50
2019-06-07T05:03:21.135Z,11.63
2019-06-07T05:05:51.473Z,10.43
2019-06-07T05:08:28.237Z,12.87
2019-06-07T05:10:53.805Z,10.27
2019-06-07T05:13:23.574Z,7.33
2019-06-07T05:15:53.842Z,14.43
2019-06-07T05:18:23.561Z,10.00
2019-06-07T05:20:53.820Z,8.80
2019-06-07T05:25:56.307Z,8.43
2019-06-07T05:28:26.003Z,14.60
2019-06-07T05:31:05.604Z,7.17
2019-06-07T05:33:27.570Z,8.67
2019-06-07T05:35:57.831Z,10.13
2019-06-07T05:38:27.531Z,8.80
2019-06-07T05:40:57.823Z,17.73
2019-06-07T05:43:28.423Z,15.60
2019-06-07T05:45:58.805Z,12.13
2019-06-07T05:48:28.527Z,10.13
2019-06-07T05:50:58.868Z,6.20
2019-06-07T05:53:28.559Z,10.32
2019-06-07T05:55:58.839Z,8.60
2019-06-07T05:58:28.574Z,12.15
2019-06-07T06:01:41.103Z,15.30
2019-06-07T06:03:30.939Z,9.53
2019-06-07T06:06:01.312Z,16.10
2019-06-07T06:08:31.804Z,14.23
2019-06-07T06:11:02.176Z,11.07
2019-06-07T06:13:32.527Z,21.43
2019-06-07T06:16:02.937Z,11.87
2019-06-07T06:18:33.281Z,7.90
2019-06-07T06:21:18.187Z,17.67
2019-06-07T06:23:39.035Z,16.32
2019-06-07T06:26:07.638Z,15.10
2019-06-07T06:28:38.353Z,10.03
2019-06-07T06:31:08.703Z,15.37
2019-06-07T06:33:39.626Z,9.17
2019-06-07T06:36:09.911Z,13.73
2019-06-07T06:38:41.389Z,10.17
2019-06-07T06:41:15.994Z,11.97
2019-06-07T06:43:46.733Z,8.33
2019-06-07T06:46:31.820Z,14.47
2019-06-07T06:48:51.728Z,11.53
2019-06-07T06:51:19.142Z,14.00
2019-06-07T06:53:51.324Z,10.80
2019-06-07T06:56:20.739Z,12.23
2019-06-07T06:59:32.557Z,7.17
2019-06-07T07:01:23.168Z,13.00
2019-06-07T07:04:10.471Z,11.83
2019-06-07T07:06:27.029Z,11.70
2019-06-07T07:08:57.351Z,10.50
2019-06-07T07:11:26.954Z,11.83
2019-06-07T07:13:57.288Z,12.57
2019-06-07T07:16:26.990Z,13.30
2019-06-07T07:18:56.575Z,16.83
2019-06-07T07:21:26.888Z,11.20
2019-06-07T07:24:20.221Z,14.43
2019-06-07T07:26:28.644Z,10.23
2019-06-07T07:28:58.223Z,14.33
2019-06-07T07:31:27.778Z,13.70
2019-06-07T07:34:29.333Z,7.30
2019-06-07T07:36:39.335Z,9.57
2019-06-07T07:39:04.995Z,12.93
2019-06-07T07:41:32.531Z,10.10
2019-06-07T07:44:07.147Z,12.70
2019-06-07T07:46:35.515Z,12.37
2019-06-07T07:49:05.170Z,13.47
2019-06-07T07:51:35.568Z,9.03
2019-06-07T07:54:10.891Z,11.07
2019-06-07T07:56:37.224Z,10.20
2019-06-07T07:59:08.138Z,13.30
2019-06-07T08:01:37.881Z,14.27
2019-06-07T08:04:08.189Z,9.40
2019-06-07T08:06:37.835Z,14.47
2019-06-07T08:09:07.914Z,11.57
2019-06-07T08:11:37.601Z,12.80
2019-06-07T08:14:07.246Z,16.20
2019-06-07T08:16:37.597Z,13.93
2019-06-07T08:19:07.404Z,13.53
2019-06-07T08:21:38.683Z,11.10
2019-06-07T08:24:08.554Z,10.90
2019-06-07T08:26:38.152Z,12.27
2019-06-07T08:29:07.770Z,12.63
2019-06-07T08:31:37.359Z,10.50
2019-06-07T08:34:07.086Z,11.37
2019-06-07T08:36:42.453Z,8.20
2019-06-07T08:39:08.593Z,10.53
2019-06-07T08:41:53.485Z,10.60
2019-06-07T08:44:23.217Z,10.37
2019-06-07T08:46:42.162Z,15.07
2019-06-07T08:49:11.854Z,13.13
2019-06-07T08:51:42.205Z,13.23
2019-06-07T08:54:22.521Z,11.73
2019-06-07T08:56:43.898Z,15.77
2019-06-07T08:59:14.137Z,11.43
2019-06-07T09:01:44.484Z,15.27
2019-06-07T09:04:14.861Z,10.30
2019-06-07T09:09:16.404Z,17.37
2019-06-07T09:11:46.749Z,15.68
2019-06-07T09:14:17.229Z,14.53
2019-06-07T09:16:46.930Z,11.20
2019-06-07T09:19:17.216Z,21.00
2019-06-07T09:21:47.582Z,22.03
2019-06-07T09:24:18.010Z,16.33
2019-06-07T09:26:47.746Z,19.77
2019-06-07T09:29:19.208Z,22.17
2019-06-07T09:31:53.208Z,19.13
2019-06-07T09:34:20.772Z,21.80
2019-06-07T09:36:51.648Z,21.50
2019-06-07T09:39:21.312Z,13.83
2019-06-07T09:41:51.674Z,18.40
2019-06-07T09:44:26.178Z,21.73
2019-06-07T09:47:14.116Z,27.67
2019-06-07T09:49:32.047Z,25.80
2019-06-07T09:51:57.920Z,18.50
2019-06-07T09:55:03.091Z,19.42
2019-06-07T09:57:04.573Z,18.23
2019-06-07T09:59:32.479Z,26.77
2019-06-07T10:02:05.140Z,15.17
2019-06-07T10:04:34.776Z,29.53
2019-06-07T10:07:26.936Z,29.63
2019-06-07T10:12:12.149Z,17.90
2019-06-07T10:14:45.123Z,21.77
2019-06-07T10:17:13.929Z,21.80
2019-06-07T10:19:44.157Z,19.90
2019-06-07T10:22:14.530Z,20.90
2019-06-07T10:24:44.858Z,19.83
2019-06-07T10:27:15.261Z,19.20
2019-06-07T10:29:45.657Z,26.37
2019-06-07T10:32:16.257Z,20.80
2019-06-07T10:34:46.653Z,23.27
2019-06-07T10:37:17.064Z,17.13
2019-06-07T10:39:49.186Z,18.80
2019-06-07T10:42:20.156Z,25.07
2019-06-07T10:44:49.862Z,15.97
2019-06-07T10:47:19.464Z,19.63
2019-06-07T10:49:49.760Z,22.03
2019-06-07T10:52:20.108Z,17.30
2019-06-07T10:54:49.815Z,17.87
2019-06-07T10:57:20.090Z,25.33
2019-06-07T10:59:49.816Z,21.03
2019-06-07T11:02:20.130Z,17.30
2019-06-07T11:04:49.825Z,20.62
2019-06-07T11:07:20.071Z,11.73
2019-06-07T11:10:05.733Z,20.10
2019-06-07T11:12:22.464Z,12.13
2019-06-07T11:14:52.200Z,12.23
2019-06-07T11:17:21.816Z,23.37
2019-06-07T11:19:51.472Z,15.67
2019-06-07T11:22:21.729Z,14.27
2019-06-07T11:24:51.445Z,13.83
2019-06-07T11:27:22.254Z,11.57
2019-06-07T11:29:51.935Z,15.27
2019-06-07T11:32:22.242Z,15.67
2019-06-07T11:34:52.575Z,16.67
2019-06-07T11:37:22.293Z,15.57
2019-06-07T11:39:51.918Z,10.00
2019-06-07T11:42:22.188Z,12.83
2019-06-07T11:44:56.892Z,10.83
2019-06-07T11:47:23.128Z,16.63
2019-06-07T11:49:52.773Z,15.93
2019-06-07T11:52:23.056Z,11.03
2019-06-07T11:54:52.826Z,10.97
2019-06-07T11:57:24.012Z,13.73
2019-06-07T11:59:54.125Z,14.07
2019-06-07T12:02:23.778Z,13.57
2019-06-07T12:04:53.382Z,11.83
2019-06-07T12:07:23.687Z,9.07
2019-06-07T12:09:56.769Z,9.80
2019-06-07T12:12:26.054Z,11.30
2019-06-07T12:14:56.417Z,12.83
2019-06-07T12:17:26.164Z,12.07
2019-06-07T12:19:56.500Z,9.53
2019-06-07T12:22:27.041Z,11.60
2019-06-07T12:24:59.500Z,7.23
2019-06-07T12:27:31.559Z,10.43
2019-06-07T12:30:09.867Z,7.83
2019-06-07T12:32:35.040Z,7.60
2019-06-07T12:35:06.212Z,10.10
2019-06-07T12:37:43.735Z,7.10
2019-06-07T12:40:10.047Z,6.27
2019-06-07T12:42:39.792Z,7.07
2019-06-07T12:45:10.484Z,10.63
2019-06-07T12:47:40.865Z,9.37
2019-06-07T12:50:13.370Z,7.97
2019-06-07T12:52:43.889Z,9.47
2019-06-07T12:55:15.883Z,7.87
2019-06-07T12:57:45.729Z,8.67
2019-06-07T13:00:16.154Z,7.10
2019-06-07T13:02:46.959Z,6.53
2019-06-07T13:05:17.902Z,5.03
2019-06-07T13:07:49.990Z,5.63
2019-06-07T13:10:22.078Z,5.23
2019-06-07T13:12:52.525Z,4.40
2019-06-07T13:15:26.084Z,5.80
2019-06-07T13:17:56.145Z,7.67
2019-06-07T13:20:26.479Z,3.27
2019-06-07T13:22:57.270Z,5.57
2019-06-07T13:25:45.226Z,8.83
2019-06-07T13:27:59.224Z,7.57
2019-06-07T13:30:29.645Z,5.20
2019-06-07T13:32:59.406Z,7.27
2019-06-07T13:35:29.806Z,7.67
2019-06-07T13:38:00.146Z,6.87
2019-06-07T13:40:30.633Z,7.43
2019-06-07T13:43:00.364Z,5.67
2019-06-07T13:45:30.826Z,3.17
2019-06-07T13:48:01.295Z,3.07
2019-06-07T13:50:31.689Z,3.40
2019-06-07T13:53:02.055Z,3.13
2019-06-07T13:55:32.473Z,7.37
2019-06-07T13:58:02.903Z,7.13
2019-06-07T14:00:33.386Z,3.47
2019-06-07T14:03:03.116Z,8.58
2019-06-07T14:05:33.511Z,5.87
2019-06-07T14:08:04.171Z,6.30
2019-06-07T14:10:34.592Z,3.27
2019-06-07T14:13:05.673Z,3.77
2019-06-07T14:15:36.102Z,6.17
2019-06-07T14:18:05.857Z,6.10
2019-06-07T14:20:36.202Z,9.10
2019-06-07T14:23:06.632Z,10.00
2019-06-07T14:25:37.123Z,3.97
2019-06-07T14:28:11.527Z,6.07
2019-06-07T14:30:38.935Z,6.70
2019-06-07T14:33:08.693Z,6.63
2019-06-07T14:35:39.027Z,5.67
2019-06-07T14:38:09.462Z,7.17
2019-06-07T14:40:39.848Z,5.73
2019-06-07T14:43:09.621Z,6.67
2019-06-07T14:45:39.911Z,6.60
2019-06-07T14:48:09.637Z,7.97
2019-06-07T14:50:40.026Z,7.13
2019-06-07T14:53:09.720Z,5.83
2019-06-07T14:55:40.115Z,6.00
2019-06-07T14:58:09.846Z,5.90
2019-06-07T15:00:46.050Z,8.63
2019-06-07T15:03:16.562Z,3.73
2019-06-07T15:05:46.406Z,4.63
2019-06-07T15:08:16.050Z,8.37
2019-06-07T15:10:45.721Z,3.50
2019-06-07T15:13:16.158Z,4.37
2019-06-07T15:15:45.865Z,6.50
2019-06-07T15:18:15.503Z,6.10
2019-06-07T15:20:45.802Z,8.03
2019-06-07T15:23:15.576Z,8.87
2019-06-07T15:25:45.198Z,7.93
2019-06-07T15:28:14.890Z,6.13
2019-06-07T15:30:44.647Z,6.57
2019-06-07T15:33:15.085Z,4.10
2019-06-07T15:35:44.899Z,6.20
2019-06-07T15:38:14.668Z,6.17
2019-06-07T15:40:45.008Z,7.47
2019-06-07T15:43:15.490Z,9.13
2019-06-07T15:45:45.359Z,4.93
2019-06-07T15:48:14.971Z,7.00
2019-06-07T15:50:45.242Z,5.50
2019-06-07T15:53:14.956Z,3.90
2019-06-07T15:55:45.887Z,7.13
2019-06-07T15:58:15.772Z,5.23
2019-06-07T16:00:49.158Z,5.87
2019-06-07T16:03:17.470Z,8.70
2019-06-07T16:05:47.770Z,5.60
2019-06-07T16:08:17.526Z,5.97
2019-06-07T16:10:47.149Z,8.23
2019-06-07T16:13:17.533Z,9.90
2019-06-07T16:15:47.344Z,8.80
2019-06-07T16:18:17.893Z,6.30
2019-06-07T16:20:48.261Z,6.80
2019-06-07T16:23:19.897Z,6.90
2019-06-07T16:25:50.335Z,5.33
2019-06-07T16:28:38.304Z,5.90
2019-06-07T16:31:28.975Z,6.53
2019-06-07T16:33:59.761Z,5.67
2019-06-07T16:36:31.181Z,7.00
2019-06-07T16:39:01.570Z,10.57
2019-06-07T16:41:32.085Z,9.53
2019-06-07T16:44:01.858Z,10.43
2019-06-07T16:46:32.296Z,5.17
2019-06-07T16:49:02.773Z,8.97
2019-06-07T16:51:33.251Z,14.30
2019-06-07T16:54:03.854Z,9.30
2019-06-07T16:56:35.387Z,14.40
2019-06-07T16:59:06.007Z,14.27
2019-06-07T17:01:37.198Z,9.90
2019-06-07T17:04:07.659Z,10.13
2019-06-07T17:06:37.636Z,12.57
2019-06-07T17:09:08.796Z,15.23
2019-06-07T17:11:42.282Z,7.53
2019-06-07T17:14:12.918Z,13.73
2019-06-07T17:16:44.427Z,12.20
2019-06-07T17:19:14.851Z,13.37
2019-06-07T17:21:45.406Z,9.17
2019-06-07T17:24:15.356Z,17.30
2019-06-07T17:26:46.119Z,7.60
2019-06-07T17:29:15.878Z,14.67
2019-06-07T17:31:46.453Z,12.37
2019-06-07T17:34:16.292Z,9.13
2019-06-07T17:36:46.447Z,15.20
2019-06-07T17:39:17.061Z,13.30
2019-06-07T17:41:54.841Z,11.47
2019-06-07T17:44:19.818Z,13.57
2019-06-07T17:46:51.547Z,17.23
2019-06-07T17:49:23.428Z,13.03
2019-06-07T17:51:53.860Z,8.67
2019-06-07T17:54:24.309Z,12.10
2019-06-07T17:56:54.738Z,11.77
2019-06-07T17:59:25.125Z,7.80
2019-06-07T18:02:13.444Z,11.43
2019-06-07T18:04:27.057Z,11.43
2019-06-07T18:06:57.110Z,10.40
2019-06-07T18:09:26.707Z,13.23
2019-06-07T18:11:56.338Z,9.07
2019-06-07T18:14:26.048Z,10.73
2019-06-07T18:16:55.716Z,7.70
2019-06-07T18:19:26.050Z,4.03
2019-06-07T18:21:59.038Z,6.40
2019-06-07T18:24:28.946Z,9.35
2019-06-07T18:26:58.939Z,5.40
2019-06-07T18:29:28.703Z,4.62
2019-06-07T18:32:00.365Z,6.80
2019-06-07T18:34:32.643Z,4.97
2019-06-07T18:37:02.379Z,3.83
2019-06-07T18:39:32.708Z,4.20
2019-06-07T18:42:03.223Z,10.77
2019-06-07T18:44:32.925Z,7.27
2019-06-07T18:47:02.714Z,10.80
2019-06-07T18:49:36.097Z,7.43
2019-06-07T18:52:30.331Z,10.23
2019-06-07T18:55:00.735Z,6.93
2019-06-07T18:57:30.571Z,8.50
2019-06-07T19:00:00.206Z,6.97
2019-06-07T19:02:29.832Z,6.40
2019-06-07T19:05:00.188Z,5.70
2019-06-07T19:07:30.001Z,3.47
2019-06-07T19:09:59.651Z,6.23
2019-06-07T19:12:29.305Z,7.63
2019-06-07T19:14:59.698Z,7.23
2019-06-07T19:17:29.478Z,7.03
2019-06-07T19:20:00.522Z,5.07
2019-06-07T19:22:31.062Z,7.43
2019-06-07T19:25:00.842Z,12.87
2019-06-07T19:27:32.831Z,6.83
2019-06-07T19:30:01.807Z,9.67
2019-06-07T19:32:32.115Z,10.90
2019-06-07T19:35:01.856Z,6.90
2019-06-07T19:37:31.502Z,7.27
2019-06-07T19:40:02.789Z,12.33
2019-06-07T19:42:33.416Z,10.73
2019-06-07T19:45:27.070Z,13.97
2019-06-07T19:47:35.151Z,25.43
2019-06-07T19:50:05.597Z,18.13
2019-06-07T19:52:35.894Z,21.70
2019-06-07T19:55:09.158Z,17.83
2019-06-07T19:57:37.204Z,18.90
2019-06-07T20:00:13.676Z,17.87
2019-06-07T20:02:39.378Z,13.27
2019-06-07T20:05:12.486Z,19.57
2019-06-07T20:07:43.002Z,13.87
2019-06-07T20:10:15.400Z,14.10
2019-06-07T20:12:45.819Z,17.60
2019-06-07T20:15:28.547Z,10.73
2019-06-07T20:17:49.017Z,14.00
2019-06-07T20:20:18.965Z,14.47
2019-06-07T20:22:49.265Z,10.37
2019-06-07T20:25:19.457Z,15.23
2019-06-07T20:27:49.748Z,12.20
2019-06-07T20:30:19.895Z,12.83
2019-06-07T20:32:49.502Z,9.00
2019-06-07T20:35:20.006Z,13.37
2019-06-07T20:37:49.727Z,16.30
2019-06-07T20:40:24.553Z,13.37
2019-06-07T20:42:51.528Z,16.70
2019-06-07T20:45:32.962Z,15.63
2019-06-07T20:47:53.617Z,18.47
2019-06-07T20:50:23.384Z,12.47
2019-06-07T20:52:53.015Z,22.17
2019-06-07T20:55:24.601Z,24.20
2019-06-07T20:57:54.967Z,21.00
2019-06-07T21:00:25.291Z,16.00
2019-06-07T21:02:55.676Z,17.07
2019-06-07T21:05:26.074Z,15.80
2019-06-07T21:07:56.990Z,25.07
2019-06-07T21:10:26.684Z,19.70
2019-06-07T21:12:56.977Z,20.53
2019-06-07T21:15:27.663Z,22.00
2019-06-07T21:17:58.155Z,20.23
2019-06-07T21:20:29.288Z,22.40
2019-06-07T21:23:00.686Z,17.10
2019-06-07T21:25:30.484Z,19.00
2019-06-07T21:28:00.937Z,22.23
2019-06-07T21:30:31.363Z,25.63
2019-06-07T21:33:01.752Z,30.57
2019-06-07T21:35:31.728Z,21.10
2019-06-07T21:38:01.946Z,22.60
2019-06-07T21:40:31.591Z,22.37
2019-06-07T21:43:02.074Z,31.30
2019-06-07T21:45:32.501Z,23.43
2019-06-07T21:48:03.768Z,28.60
2019-06-07T21:50:33.477Z,26.40
2019-06-07T21:53:04.526Z,17.30
2019-06-07T21:55:35.032Z,20.40
2019-06-07T21:58:05.391Z,22.73
2019-06-07T22:01:12.208Z,17.07
2019-06-07T22:03:42.680Z,24.20
2019-06-07T22:06:13.662Z,20.03
2019-06-07T22:08:43.773Z,17.50
2019-06-07T22:11:15.759Z,12.53
2019-06-07T22:13:46.116Z,13.23
2019-06-07T22:16:27.951Z,21.17
2019-06-07T22:18:47.683Z,21.13
2019-06-07T22:21:18.029Z,15.63
2019-06-07T22:23:48.433Z,12.97
2019-06-07T22:26:18.820Z,13.43
2019-06-07T22:28:49.207Z,16.30
2019-06-07T22:31:19.555Z,24.47
2019-06-07T22:33:49.980Z,21.07
2019-06-07T22:36:20.605Z,16.10
2019-06-07T22:38:50.233Z,16.07
2019-06-07T22:41:20.684Z,11.77
2019-06-07T22:43:50.295Z,12.87
2019-06-07T22:46:36.328Z,11.63
2019-06-07T22:48:53.295Z,11.43
2019-06-07T22:51:22.993Z,9.63
2019-06-07T22:53:52.603Z,11.13
2019-06-07T22:56:45.926Z,8.83
2019-06-07T22:59:18.859Z,15.60
2019-06-07T23:01:47.527Z,15.80
2019-06-07T23:04:19.315Z,18.40
2019-06-07T23:06:49.207Z,13.03
2019-06-07T23:09:19.843Z,15.90
2019-06-07T23:11:50.315Z,19.73
2019-06-07T23:14:21.404Z,8.10
2019-06-07T23:16:55.810Z,9.77
2019-06-07T23:19:23.099Z,7.97
2019-06-07T23:21:52.842Z,15.10
2019-06-07T23:24:22.428Z,14.37
2019-06-07T23:26:52.069Z,16.03
2019-06-07T23:29:21.666Z,15.53
2019-06-07T23:31:51.995Z,24.93
2019-06-07T23:34:21.671Z,27.97
2019-06-07T23:36:52.019Z,21.00
2019-06-07T23:39:22.573Z,12.53
2019-06-07T23:41:52.339Z,12.60
2019-06-07T23:44:22.642Z,12.63
2019-06-07T23:46:52.369Z,14.10
2019-06-07T23:49:22.667Z,12.93
2019-06-07T23:51:52.328Z,11.13
2019-06-07T23:54:22.605Z,15.60
2019-06-07T23:56:52.429Z,14.87
2019-06-07T23:59:23.762Z,26.73
